ホノルル の空港の天気 - METARとTAF

ホノルル国際空港 ( PHNL / HNL ) - アメリカ ハワイ州ホノルル
飛行場実況気象(Metar)
観測時間08/13 18:53 HST (08/14 04:53 UTC)
風向・風速北東 6m/s
視程10km以上
天気現象
少しの雲 雲底高度 730m
少しの雲 雲底高度 1220m
気温27.8℃
湿度56%
気圧1013.7hPa
METARPHNL 140453Z 04011KT 10SM FEW024 FEW040 28/18 A2994 RMK AO2 SLP137 VCSH N T02780183
過去の天気等 Google飛行場航空写真 Wunderground天気予報

過去48時間のMETAR

飛行場予報(TAF)
発表時間: 8/13 19:23 HST (8/14 05:23 UTC)
予報対象時間: 13日20時 HST ~ 15日2時 HST
風向・風速北東 4m/s
視程10km以上
少しの雲 雲底高度 760m
全天の4割程度の雲 雲底高度 1220m
14日10時 HST から
風向・風速東北東 6m/s 瞬間風速 9m/s
視程10km以上
少しの雲 雲底高度 760m
全天の4割程度の雲 雲底高度 1370m
14日20時 HST から
風向・風速北東 4m/s
視程10km以上
全天の4割程度の雲 雲底高度 760m
全天の4割程度の雲 雲底高度 1220m
PHNL 140523Z 1406/1512 05008KT P6SM FEW025 SCT040
FM142000 06012G18KT P6SM FEW025 SCT045
FM150600 05007KT P6SM SCT025 SCT040